sensor_id;sensor_type;location;lat;lon;timestamp;pressure;altitude;pressure_sealevel;temperature;humidity
68199;BME280;55021;51.554;17.044;2023-05-10T00:10:26;100643.19;;;11.29;53.38
68199;BME280;55021;51.554;17.044;2023-05-10T00:25:28;100677.75;;;10.99;54.78
68199;BME280;55021;51.554;17.044;2023-05-10T00:40:32;100611.66;;;10.01;56.37
68199;BME280;55021;51.554;17.044;2023-05-10T00:55:35;100608.13;;;9.91;58.14
68199;BME280;55021;51.554;17.044;2023-05-10T01:10:38;100660.19;;;9.93;58.73
68199;BME280;55021;51.554;17.044;2023-05-10T01:26:05;100662.47;;;9.78;59.79
68199;BME280;55021;51.554;17.044;2023-05-10T01:41:19;100660.72;;;8.82;62.66
68199;BME280;55021;51.554;17.044;2023-05-10T01:56:26;100662.63;;;9.19;61.87
68199;BME280;55021;51.554;17.044;2023-05-10T02:26:45;100558.94;;;8.44;62.10
68199;BME280;55021;51.554;17.044;2023-05-10T02:41:56;100646.44;;;8.30;65.43
68199;BME280;55021;51.554;17.044;2023-05-10T02:57:46;100644.28;;;8.03;65.07
68199;BME280;55021;51.554;17.044;2023-05-10T03:13:35;100581.41;;;7.84;66.03
68199;BME280;55021;51.554;17.044;2023-05-10T03:28:41;100621.16;;;8.01;65.79
68199;BME280;55021;51.554;17.044;2023-05-10T03:43:44;100587.78;;;8.13;66.14
68199;BME280;55021;51.554;17.044;2023-05-10T03:58:47;100610.16;;;10.26;58.83
68199;BME280;55021;51.554;17.044;2023-05-10T04:13:50;100604.22;;;9.66;64.64
68199;BME280;55021;51.554;17.044;2023-05-10T04:28:57;100587.00;;;10.78;60.88
68199;BME280;55021;51.554;17.044;2023-05-10T04:44:00;100584.09;;;11.42;59.31
68199;BME280;55021;51.554;17.044;2023-05-10T04:59:05;100577.94;;;11.83;55.54
68199;BME280;55021;51.554;17.044;2023-05-10T05:14:10;100568.88;;;12.60;54.62
68199;BME280;55021;51.554;17.044;2023-05-10T05:29:15;100593.94;;;12.96;53.15
68199;BME280;55021;51.554;17.044;2023-05-10T05:44:19;100540.03;;;13.57;49.99
68199;BME280;55021;51.554;17.044;2023-05-10T05:59:28;100600.75;;;14.21;50.46
68199;BME280;55021;51.554;17.044;2023-05-10T06:14:32;100582.66;;;15.13;48.04
68199;BME280;55021;51.554;17.044;2023-05-10T06:29:34;100596.38;;;16.25;47.24
68199;BME280;55021;51.554;17.044;2023-05-10T06:44:37;100549.88;;;16.34;46.07
68199;BME280;55021;51.554;17.044;2023-05-10T06:59:39;100539.69;;;17.07;46.97
68199;BME280;55021;51.554;17.044;2023-05-10T07:14:41;100563.97;;;18.08;44.82
68199;BME280;55021;51.554;17.044;2023-05-10T07:29:45;100538.22;;;18.30;45.50
68199;BME280;55021;51.554;17.044;2023-05-10T07:44:50;100564.84;;;19.90;44.21
68199;BME280;55021;51.554;17.044;2023-05-10T07:59:53;100532.06;;;20.08;43.99
68199;BME280;55021;51.554;17.044;2023-05-10T08:14:56;100544.59;;;20.81;42.10
68199;BME280;55021;51.554;17.044;2023-05-10T08:29:59;100549.53;;;20.60;44.26
68199;BME280;55021;51.554;17.044;2023-05-10T08:45:03;100440.31;;;20.29;41.03
68199;BME280;55021;51.554;17.044;2023-05-10T09:00:13;100457.56;;;20.56;40.25
68199;BME280;55021;51.554;17.044;2023-05-10T09:15:17;100513.53;;;21.43;42.49
68199;BME280;55021;51.554;17.044;2023-05-10T09:30:25;100518.00;;;21.44;40.42
68199;BME280;55021;51.554;17.044;2023-05-10T09:45:29;100517.31;;;21.74;39.19
68199;BME280;55021;51.554;17.044;2023-05-10T10:00:38;100494.00;;;21.94;38.92
68199;BME280;55021;51.554;17.044;2023-05-10T10:15:43;100514.28;;;21.57;39.05
68199;BME280;55021;51.554;17.044;2023-05-10T10:30:48;100486.00;;;22.11;37.84
68199;BME280;55021;51.554;17.044;2023-05-10T10:46:21;100442.72;;;22.36;35.86
68199;BME280;55021;51.554;17.044;2023-05-10T11:01:23;100450.47;;;22.76;36.55
68199;BME280;55021;51.554;17.044;2023-05-10T11:16:48;100428.47;;;22.69;36.01
68199;BME280;55021;51.554;17.044;2023-05-10T11:31:51;100460.47;;;22.88;37.62
68199;BME280;55021;51.554;17.044;2023-05-10T11:47:31;100455.25;;;24.44;33.76
68199;BME280;55021;51.554;17.044;2023-05-10T12:02:34;100401.09;;;24.48;32.02
68199;BME280;55021;51.554;17.044;2023-05-10T12:17:43;100411.16;;;23.21;36.43
68199;BME280;55021;51.554;17.044;2023-05-10T12:32:49;100394.22;;;24.11;33.43
68199;BME280;55021;51.554;17.044;2023-05-10T12:47:53;100440.94;;;25.32;32.66
68199;BME280;55021;51.554;17.044;2023-05-10T13:02:57;100453.34;;;24.44;34.01
68199;BME280;55021;51.554;17.044;2023-05-10T13:17:59;100448.47;;;23.77;35.06
68199;BME280;55021;51.554;17.044;2023-05-10T13:33:02;100424.81;;;23.05;35.21
68199;BME280;55021;51.554;17.044;2023-05-10T13:48:04;100439.28;;;23.65;34.35
68199;BME280;55021;51.554;17.044;2023-05-10T14:03:07;100425.13;;;23.38;33.52
68199;BME280;55021;51.554;17.044;2023-05-10T14:18:09;100391.78;;;22.98;35.24
68199;BME280;55021;51.554;17.044;2023-05-10T14:33:12;100338.41;;;23.16;34.03
68199;BME280;55021;51.554;17.044;2023-05-10T14:48:14;100396.34;;;23.04;33.71
68199;BME280;55021;51.554;17.044;2023-05-10T15:03:17;100408.53;;;23.38;32.39
68199;BME280;55021;51.554;17.044;2023-05-10T15:18:20;100358.00;;;22.73;34.10
68199;BME280;55021;51.554;17.044;2023-05-10T15:33:22;100417.81;;;22.43;35.09
68199;BME280;55021;51.554;17.044;2023-05-10T15:48:25;100373.78;;;22.00;34.89
68199;BME280;55021;51.554;17.044;2023-05-10T16:03:27;100323.16;;;21.83;35.63
68199;BME280;55021;51.554;17.044;2023-05-10T16:18:30;100359.56;;;21.85;35.51
68199;BME280;55021;51.554;17.044;2023-05-10T16:33:32;100328.56;;;21.10;36.29
68199;BME280;55021;51.554;17.044;2023-05-10T16:48:35;100335.00;;;20.73;36.80
68199;BME280;55021;51.554;17.044;2023-05-10T17:03:37;100413.69;;;21.30;37.56
68199;BME280;55021;51.554;17.044;2023-05-10T17:18:42;100413.69;;;20.98;37.09
68199;BME280;55021;51.554;17.044;2023-05-10T17:33:45;100463.47;;;21.53;37.32
68199;BME280;55021;51.554;17.044;2023-05-10T17:48:47;100476.53;;;20.64;40.26
68199;BME280;55021;51.554;17.044;2023-05-10T18:03:51;100498.94;;;19.83;42.78
68199;BME280;55021;51.554;17.044;2023-05-10T18:18:53;100503.81;;;18.75;44.19
68199;BME280;55021;51.554;17.044;2023-05-10T18:33:57;100524.00;;;17.37;46.87
68199;BME280;55021;51.554;17.044;2023-05-10T18:49:01;100541.47;;;18.13;45.05
68199;BME280;55021;51.554;17.044;2023-05-10T19:04:05;100487.34;;;17.31;46.05
68199;BME280;55021;51.554;17.044;2023-05-10T19:19:08;100550.97;;;17.40;46.83
68199;BME280;55021;51.554;17.044;2023-05-10T19:34:10;100547.28;;;17.54;46.41
68199;BME280;55021;51.554;17.044;2023-05-10T19:49:13;100533.38;;;17.28;46.07
68199;BME280;55021;51.554;17.044;2023-05-10T20:04:15;100516.09;;;16.70;49.46
68199;BME280;55021;51.554;17.044;2023-05-10T20:19:18;100552.31;;;16.28;49.06
68199;BME280;55021;51.554;17.044;2023-05-10T20:34:20;100603.34;;;16.13;48.79
68199;BME280;55021;51.554;17.044;2023-05-10T20:49:23;100603.81;;;16.17;49.73
68199;BME280;55021;51.554;17.044;2023-05-10T21:04:25;100612.41;;;16.58;47.76
68199;BME280;55021;51.554;17.044;2023-05-10T21:19:27;100588.72;;;15.92;48.57
68199;BME280;55021;51.554;17.044;2023-05-10T21:34:30;100616.25;;;15.06;51.92
68199;BME280;55021;51.554;17.044;2023-05-10T21:49:32;100604.59;;;14.89;51.54
68199;BME280;55021;51.554;17.044;2023-05-10T22:04:34;100630.59;;;15.00;50.79
68199;BME280;55021;51.554;17.044;2023-05-10T22:19:37;100637.88;;;15.61;48.66
68199;BME280;55021;51.554;17.044;2023-05-10T22:34:39;100642.72;;;15.51;48.10
68199;BME280;55021;51.554;17.044;2023-05-10T22:49:42;100656.41;;;15.43;48.69
68199;BME280;55021;51.554;17.044;2023-05-10T23:04:45;100625.13;;;15.00;49.30
68199;BME280;55021;51.554;17.044;2023-05-10T23:19:47;100637.81;;;14.85;50.17
68199;BME280;55021;51.554;17.044;2023-05-10T23:34:50;100639.75;;;13.65;52.30
68199;BME280;55021;51.554;17.044;2023-05-10T23:49:53;100662.88;;;14.01;52.53
